createdAt,value
2022-10-22T00:00:18.676Z,8.32
2022-10-22T00:02:46.038Z,10.55
2022-10-22T00:05:13.813Z,4.90
2022-10-22T00:07:41.648Z,5.60
2022-10-22T00:10:09.721Z,7.93
2022-10-22T00:12:37.580Z,8.50
2022-10-22T00:15:06.773Z,8.10
2022-10-22T00:17:34.104Z,8.88
2022-10-22T00:20:01.543Z,9.13
2022-10-22T00:22:28.917Z,6.15
2022-10-22T00:24:56.244Z,7.53
2022-10-22T00:27:23.542Z,6.80
2022-10-22T00:29:50.891Z,6.80
2022-10-22T00:32:18.266Z,11.65
2022-10-22T00:34:45.736Z,13.35
2022-10-22T00:37:13.161Z,8.98
2022-10-22T00:39:40.640Z,7.57
2022-10-22T00:42:10.598Z,7.75
2022-10-22T00:45:02.710Z,8.05
2022-10-22T00:47:54.649Z,8.10
2022-10-22T00:50:37.585Z,7.82
2022-10-22T00:53:10.445Z,7.38
2022-10-22T00:55:38.919Z,6.43
2022-10-22T00:58:06.556Z,10.45
2022-10-22T01:00:33.932Z,7.72
2022-10-22T01:03:01.789Z,8.40
2022-10-22T01:05:33.114Z,12.43
2022-10-22T01:08:00.561Z,9.10
2022-10-22T01:10:59.658Z,9.73
2022-10-22T01:13:49.264Z,11.80
2022-10-22T01:16:26.994Z,9.23
2022-10-22T01:19:28.453Z,8.40
2022-10-22T01:22:00.323Z,9.40
2022-10-22T01:24:56.024Z,11.63
2022-10-22T01:27:42.507Z,10.02
2022-10-22T01:30:15.247Z,8.48
2022-10-22T01:32:51.424Z,13.15
2022-10-22T01:35:24.458Z,8.43
2022-10-22T01:37:57.378Z,8.23
2022-10-22T01:40:26.310Z,7.70
2022-10-22T01:43:02.782Z,8.43
2022-10-22T01:45:52.242Z,13.40
2022-10-22T01:48:41.039Z,11.32
2022-10-22T01:51:26.852Z,7.70
2022-10-22T01:54:07.292Z,7.70
2022-10-22T01:57:06.803Z,9.63
2022-10-22T02:00:03.425Z,10.38
2022-10-22T02:05:25.045Z,8.77
2022-10-22T02:08:21.716Z,11.40
2022-10-22T02:10:50.937Z,5.60
2022-10-22T02:13:26.432Z,5.28
2022-10-22T02:15:55.893Z,9.18
2022-10-22T02:18:27.840Z,10.68
2022-10-22T02:20:56.036Z,11.73
2022-10-22T02:23:23.597Z,9.23
2022-10-22T02:25:57.650Z,10.45
2022-10-22T02:28:45.542Z,8.32
2022-10-22T02:31:19.028Z,11.40
2022-10-22T02:33:50.850Z,9.75
2022-10-22T02:36:18.723Z,9.27
2022-10-22T02:38:48.065Z,11.40
2022-10-22T02:41:17.467Z,8.80
2022-10-22T02:43:49.946Z,7.82
2022-10-22T02:46:17.426Z,10.57
2022-10-22T02:48:44.863Z,7.57
2022-10-22T02:51:12.303Z,9.65
2022-10-22T02:53:39.608Z,7.60
2022-10-22T02:56:07.215Z,11.63
2022-10-22T02:58:34.607Z,11.93
2022-10-22T03:01:02.148Z,8.13
2022-10-22T03:03:29.518Z,7.70
2022-10-22T03:05:56.876Z,8.52
2022-10-22T03:08:24.202Z,8.73
2022-10-22T03:10:51.688Z,7.22
2022-10-22T03:13:18.944Z,12.43
2022-10-22T03:15:49.519Z,9.23
2022-10-22T03:18:17.721Z,7.57
2022-10-22T03:20:45.050Z,11.65
2022-10-22T03:23:15.078Z,10.27
2022-10-22T03:25:44.265Z,12.05
2022-10-22T03:28:15.561Z,8.90
2022-10-22T03:30:42.971Z,7.28
2022-10-22T03:33:10.241Z,10.07
2022-10-22T03:35:44.605Z,9.98
2022-10-22T03:38:12.942Z,9.45
2022-10-22T03:40:42.583Z,9.93
2022-10-22T03:43:10.922Z,9.32
2022-10-22T03:48:10.486Z,9.50
2022-10-22T03:50:37.841Z,10.57
2022-10-22T03:53:05.260Z,8.25
2022-10-22T03:55:32.606Z,7.93
2022-10-22T03:57:59.911Z,11.40
2022-10-22T04:00:27.228Z,12.65
2022-10-22T04:02:56.143Z,8.00
2022-10-22T04:05:23.611Z,8.13
2022-10-22T04:07:50.936Z,7.95
2022-10-22T04:10:18.329Z,10.45
2022-10-22T04:12:48.289Z,11.60
2022-10-22T04:15:15.743Z,10.38
2022-10-22T04:17:43.629Z,7.47
2022-10-22T04:20:11.262Z,7.82
2022-10-22T04:22:38.663Z,9.60
2022-10-22T04:25:06.799Z,11.90
2022-10-22T04:27:35.368Z,11.88
2022-10-22T04:30:06.674Z,10.43
2022-10-22T04:32:34.145Z,8.90
2022-10-22T04:35:01.486Z,14.45
2022-10-22T04:37:28.848Z,11.35
2022-10-22T04:39:58.104Z,10.13
2022-10-22T04:42:25.895Z,9.60
2022-10-22T04:44:53.128Z,19.70
2022-10-22T04:47:20.482Z,6.93
2022-10-22T04:49:47.813Z,10.70
2022-10-22T04:52:15.174Z,7.15
2022-10-22T04:54:42.488Z,10.95
2022-10-22T04:57:09.841Z,11.30
2022-10-22T04:59:37.169Z,12.80
2022-10-22T05:02:04.606Z,11.80
2022-10-22T05:04:32.132Z,6.95
2022-10-22T05:06:59.501Z,7.20
2022-10-22T05:09:26.987Z,7.35
2022-10-22T05:11:54.701Z,8.45
2022-10-22T05:14:24.165Z,12.48
2022-10-22T05:16:52.522Z,11.15
2022-10-22T05:19:25.186Z,9.52
2022-10-22T05:21:55.499Z,9.25
2022-10-22T05:24:22.833Z,9.35
2022-10-22T05:26:51.661Z,11.38
2022-10-22T05:29:19.699Z,9.10
2022-10-22T05:31:47.195Z,12.10
2022-10-22T05:34:15.156Z,6.10
2022-10-22T05:36:42.700Z,7.65
2022-10-22T05:39:10.158Z,10.07
2022-10-22T05:41:37.776Z,7.40
2022-10-22T05:44:05.809Z,16.27
2022-10-22T05:46:36.689Z,12.15
2022-10-22T05:49:06.244Z,12.80
2022-10-22T05:51:36.377Z,15.70
2022-10-22T05:54:06.511Z,8.38
2022-10-22T05:56:35.106Z,9.68
2022-10-22T06:01:35.716Z,12.60
2022-10-22T06:04:07.085Z,8.02
2022-10-22T06:06:50.151Z,7.97
2022-10-22T06:09:22.536Z,8.23
2022-10-22T06:11:50.906Z,8.63
2022-10-22T06:14:19.198Z,8.18
2022-10-22T06:16:46.819Z,9.23
2022-10-22T06:19:16.241Z,10.98
2022-10-22T06:21:44.294Z,12.60
2022-10-22T06:24:11.963Z,10.80
2022-10-22T06:26:40.150Z,5.63
2022-10-22T06:29:08.023Z,9.77
2022-10-22T06:31:38.162Z,8.02
2022-10-22T06:34:11.842Z,8.02
2022-10-22T06:36:42.577Z,9.80
2022-10-22T06:39:15.567Z,8.57
2022-10-22T06:41:43.006Z,8.00
2022-10-22T06:44:17.622Z,7.53
2022-10-22T06:49:14.512Z,12.27
2022-10-22T06:51:42.257Z,8.60
2022-10-22T06:54:09.897Z,10.48
2022-10-22T06:56:37.478Z,6.28
2022-10-22T06:59:04.954Z,9.82
2022-10-22T07:01:34.173Z,8.75
2022-10-22T07:04:02.234Z,8.00
2022-10-22T07:06:29.978Z,13.82
2022-10-22T07:08:58.797Z,11.45
2022-10-22T07:11:35.359Z,11.63
2022-10-22T07:14:02.703Z,8.45
2022-10-22T07:16:32.486Z,11.20
2022-10-22T07:19:01.391Z,13.95
2022-10-22T07:21:29.626Z,8.63
2022-10-22T07:23:57.622Z,6.47
2022-10-22T07:26:25.616Z,12.57
2022-10-22T07:28:52.946Z,14.07
2022-10-22T07:31:20.400Z,10.20
2022-10-22T07:33:47.760Z,9.50
2022-10-22T07:36:19.374Z,6.85
2022-10-22T07:38:48.827Z,9.27
2022-10-22T07:41:16.779Z,7.00
2022-10-22T07:43:44.663Z,10.90
2022-10-22T07:46:12.461Z,6.93
2022-10-22T07:48:39.916Z,9.05
2022-10-22T07:51:07.629Z,6.07
2022-10-22T07:53:35.089Z,8.63
2022-10-22T07:56:02.906Z,5.15
2022-10-22T07:58:31.980Z,9.13
2022-10-22T08:01:00.947Z,9.27
2022-10-22T08:03:29.350Z,12.27
2022-10-22T08:05:57.017Z,10.55
2022-10-22T08:08:28.317Z,11.82
2022-10-22T08:11:00.561Z,15.00
2022-10-22T08:13:30.618Z,7.03
2022-10-22T08:16:02.010Z,9.80
2022-10-22T08:18:29.989Z,8.57
2022-10-22T08:20:57.648Z,7.53
2022-10-22T08:23:27.716Z,7.78
2022-10-22T08:25:57.379Z,7.78
2022-10-22T08:28:25.105Z,6.10
2022-10-22T08:30:52.452Z,7.38
2022-10-22T08:33:19.842Z,10.82
2022-10-22T08:35:51.189Z,6.80
2022-10-22T08:38:19.288Z,10.65
2022-10-22T08:40:59.621Z,5.38
2022-10-22T08:43:38.641Z,6.85
2022-10-22T08:46:25.093Z,8.55
2022-10-22T08:48:55.821Z,8.15
2022-10-22T08:51:34.464Z,6.60
2022-10-22T08:54:17.628Z,6.43
2022-10-22T08:56:50.594Z,14.77
2022-10-22T08:59:25.874Z,7.10
2022-10-22T09:01:54.540Z,17.73
2022-10-22T09:04:41.427Z,4.50
2022-10-22T09:07:09.450Z,7.80
2022-10-22T09:09:46.681Z,11.57
2022-10-22T09:12:20.135Z,6.63
2022-10-22T09:14:47.991Z,9.68
2022-10-22T09:17:38.296Z,9.90
2022-10-22T09:20:26.753Z,8.25
2022-10-22T09:23:29.608Z,8.15
2022-10-22T09:25:57.821Z,10.48
2022-10-22T09:28:25.217Z,9.73
2022-10-22T09:30:52.597Z,10.68
2022-10-22T09:33:25.298Z,9.75
2022-10-22T09:35:58.802Z,7.88
2022-10-22T09:38:44.564Z,11.00
2022-10-22T09:41:12.789Z,8.73
2022-10-22T09:43:40.101Z,10.63
2022-10-22T09:46:19.268Z,10.32
2022-10-22T09:48:58.594Z,5.53
2022-10-22T09:51:51.985Z,6.43
2022-10-22T09:54:25.094Z,8.98
2022-10-22T09:56:55.943Z,6.20
2022-10-22T09:59:32.720Z,6.57
2022-10-22T10:02:13.738Z,10.65
2022-10-22T10:04:53.716Z,8.65
2022-10-22T10:07:24.244Z,8.65
2022-10-22T10:09:53.649Z,5.40
2022-10-22T10:12:52.607Z,8.88
2022-10-22T10:15:28.462Z,6.70
2022-10-22T10:18:06.711Z,5.53
2022-10-22T10:20:41.023Z,8.27
2022-10-22T10:23:27.994Z,8.57
2022-10-22T10:26:02.090Z,8.35
2022-10-22T10:28:51.238Z,5.95
2022-10-22T10:31:30.599Z,7.82
2022-10-22T10:34:04.083Z,8.07
2022-10-22T10:37:09.213Z,12.43
2022-10-22T10:40:11.608Z,5.68
2022-10-22T10:42:49.008Z,8.20
2022-10-22T10:45:44.806Z,8.57
2022-10-22T10:48:12.106Z,9.25
2022-10-22T10:50:51.382Z,5.60
2022-10-22T10:53:45.006Z,6.97
2022-10-22T10:56:44.830Z,4.13
2022-10-22T10:59:23.820Z,8.68
2022-10-22T11:02:12.793Z,10.43
2022-10-22T11:04:46.200Z,5.25
2022-10-22T11:07:30.408Z,11.23
2022-10-22T11:10:17.725Z,7.30
2022-10-22T11:12:51.397Z,11.73
2022-10-22T11:15:33.235Z,5.80
2022-10-22T11:18:11.370Z,7.80
2022-10-22T11:20:49.576Z,11.77
2022-10-22T11:23:39.602Z,9.13
2022-10-22T11:26:15.303Z,9.50
2022-10-22T11:28:47.451Z,4.43
2022-10-22T11:31:17.045Z,6.50
2022-10-22T11:34:33.343Z,5.55
2022-10-22T11:37:04.242Z,10.85
2022-10-22T11:39:51.151Z,6.95
2022-10-22T11:42:34.391Z,10.13
2022-10-22T11:45:13.709Z,7.00
2022-10-22T11:48:19.332Z,10.88
2022-10-22T11:50:54.247Z,11.25
2022-10-22T11:53:30.917Z,6.55
2022-10-22T11:56:04.535Z,10.57
2022-10-22T11:58:33.165Z,11.53
2022-10-22T12:01:09.197Z,8.25
2022-10-22T12:03:48.354Z,9.45
2022-10-22T12:06:19.732Z,5.35
2022-10-22T12:08:50.270Z,8.93
2022-10-22T12:11:40.649Z,7.80
2022-10-22T12:14:19.847Z,13.32
2022-10-22T12:16:57.190Z,11.00
2022-10-22T12:19:36.886Z,9.60
2022-10-22T12:22:18.137Z,7.38
2022-10-22T12:24:52.403Z,11.18
2022-10-22T12:27:23.259Z,9.77
2022-10-22T12:29:59.072Z,12.98
2022-10-22T12:32:38.732Z,8.77
2022-10-22T12:35:08.964Z,9.52
2022-10-22T12:37:37.829Z,6.65
2022-10-22T12:40:21.899Z,12.70
2022-10-22T12:43:00.306Z,5.13
2022-10-22T12:45:30.364Z,7.90
2022-10-22T12:48:00.512Z,9.18
2022-10-22T12:50:38.324Z,11.13
2022-10-22T12:53:20.117Z,10.70
2022-10-22T12:55:51.352Z,10.13
2022-10-22T12:58:26.640Z,8.98
2022-10-22T13:01:02.062Z,7.88
2022-10-22T13:03:35.472Z,7.13
2022-10-22T13:06:20.868Z,7.78
2022-10-22T13:09:00.167Z,8.45
2022-10-22T13:11:38.596Z,8.95
2022-10-22T13:14:29.530Z,9.55
2022-10-22T13:17:40.353Z,11.65
2022-10-22T13:20:22.960Z,7.13
2022-10-22T13:23:02.768Z,13.23
2022-10-22T13:25:32.639Z,12.75
2022-10-22T13:28:21.412Z,13.65
2022-10-22T13:30:58.870Z,9.90
2022-10-22T13:33:41.180Z,11.10
2022-10-22T13:36:13.911Z,10.73
2022-10-22T13:38:42.541Z,10.63
2022-10-22T13:41:27.989Z,14.57
2022-10-22T13:43:55.772Z,8.63
2022-10-22T13:46:24.257Z,10.65
2022-10-22T13:48:54.131Z,9.13
2022-10-22T13:51:37.450Z,12.73
2022-10-22T13:54:10.587Z,11.32
2022-10-22T13:56:37.892Z,11.90
2022-10-22T13:59:05.156Z,12.50
2022-10-22T14:01:32.528Z,9.25
2022-10-22T14:04:02.027Z,9.30
2022-10-22T14:06:34.212Z,12.13
2022-10-22T14:09:11.262Z,10.80
2022-10-22T14:11:38.628Z,12.65
2022-10-22T14:14:08.891Z,9.05
2022-10-22T14:16:37.636Z,5.65
2022-10-22T14:19:07.625Z,7.65
2022-10-22T14:21:37.747Z,6.97
2022-10-22T14:24:08.214Z,7.38
2022-10-22T14:26:38.204Z,8.32
2022-10-22T14:29:10.134Z,7.15
2022-10-22T14:31:43.456Z,12.95
2022-10-22T14:34:13.900Z,8.82
2022-10-22T14:36:43.722Z,5.88
2022-10-22T14:39:12.100Z,7.53
2022-10-22T14:41:40.886Z,6.88
2022-10-22T14:44:14.443Z,10.93
2022-10-22T14:46:44.050Z,12.73
2022-10-22T14:49:11.537Z,10.77
2022-10-22T14:51:38.845Z,8.43
2022-10-22T14:54:06.247Z,14.45
2022-10-22T14:56:33.610Z,11.07
2022-10-22T14:59:00.947Z,9.27
2022-10-22T15:01:28.449Z,9.25
2022-10-22T15:03:55.802Z,10.52
2022-10-22T15:06:23.121Z,8.15
2022-10-22T15:08:50.930Z,8.13
2022-10-22T15:11:18.385Z,9.07
2022-10-22T15:13:45.764Z,7.68
2022-10-22T15:16:14.788Z,8.27
2022-10-22T15:18:42.465Z,11.15
2022-10-22T15:21:16.858Z,11.00
2022-10-22T15:26:13.572Z,7.78
2022-10-22T15:28:42.200Z,11.13
2022-10-22T15:31:14.118Z,8.45
2022-10-22T15:33:42.612Z,7.20
2022-10-22T15:36:16.095Z,12.20
2022-10-22T15:38:43.431Z,8.98
2022-10-22T15:41:12.412Z,6.47
2022-10-22T15:43:39.735Z,10.80
2022-10-22T15:46:16.259Z,9.93
2022-10-22T15:48:43.841Z,9.98
2022-10-22T15:51:17.005Z,12.63
2022-10-22T15:53:50.419Z,10.63
2022-10-22T15:56:17.924Z,9.23
2022-10-22T15:58:45.251Z,10.93
2022-10-22T16:01:14.714Z,9.13
2022-10-22T16:03:42.379Z,7.20
2022-10-22T16:06:10.035Z,7.85
2022-10-22T16:08:38.309Z,7.13
2022-10-22T16:11:05.863Z,7.80
2022-10-22T16:13:33.201Z,8.77
2022-10-22T16:16:05.979Z,8.65
2022-10-22T16:18:33.569Z,8.75
2022-10-22T16:21:00.945Z,8.90
2022-10-22T16:23:28.303Z,10.18
2022-10-22T16:25:55.642Z,8.73
2022-10-22T16:28:22.940Z,10.23
2022-10-22T16:30:51.200Z,8.98
2022-10-22T16:33:19.054Z,5.05
2022-10-22T16:35:48.508Z,7.97
2022-10-22T16:38:16.205Z,9.38
2022-10-22T16:40:43.508Z,8.73
2022-10-22T16:46:03.970Z,10.43
2022-10-22T16:48:32.638Z,7.30
2022-10-22T16:51:05.594Z,8.23
2022-10-22T16:56:08.164Z,10.05
2022-10-22T16:58:35.536Z,8.65
2022-10-22T17:01:07.935Z,7.80
2022-10-22T17:03:36.050Z,10.23
2022-10-22T17:06:04.546Z,11.45
2022-10-22T17:08:34.559Z,5.75
2022-10-22T17:11:09.634Z,10.77
2022-10-22T17:13:38.264Z,8.93
2022-10-22T17:16:08.059Z,9.43
2022-10-22T17:18:37.223Z,8.05
2022-10-22T17:21:05.762Z,10.73
2022-10-22T17:23:33.169Z,9.95
2022-10-22T17:26:03.120Z,8.25
2022-10-22T17:28:30.703Z,8.38
2022-10-22T17:31:27.393Z,7.50
2022-10-22T17:33:56.432Z,10.38
2022-10-22T17:36:24.841Z,10.25
2022-10-22T17:38:54.703Z,9.52
2022-10-22T17:41:24.620Z,10.38
2022-10-22T17:43:52.007Z,24.50
2022-10-22T17:46:25.113Z,7.10
2022-10-22T17:49:18.858Z,12.13
2022-10-22T17:51:46.583Z,11.15
2022-10-22T17:54:14.533Z,8.40
2022-10-22T17:56:41.972Z,7.95
2022-10-22T17:59:13.163Z,8.40
2022-10-22T18:01:45.264Z,7.85
2022-10-22T18:04:18.842Z,7.55
2022-10-22T18:06:47.628Z,16.92
2022-10-22T18:09:18.523Z,8.25
2022-10-22T18:11:48.483Z,7.70
2022-10-22T18:14:20.055Z,8.25
2022-10-22T18:16:48.049Z,10.45
2022-10-22T18:19:18.742Z,8.25
2022-10-22T18:21:46.578Z,8.15
2022-10-22T18:24:15.443Z,13.07
2022-10-22T18:26:43.448Z,9.73
2022-10-22T18:29:14.886Z,10.38
2022-10-22T18:31:42.362Z,9.35
2022-10-22T18:34:09.982Z,10.38
2022-10-22T18:36:37.533Z,8.77
2022-10-22T18:39:06.199Z,12.27
2022-10-22T18:41:34.546Z,8.20
2022-10-22T18:44:04.483Z,9.98
2022-10-22T18:46:38.386Z,10.65
2022-10-22T18:49:09.226Z,14.38
2022-10-22T18:51:36.739Z,6.00
2022-10-22T18:54:05.862Z,7.15
2022-10-22T18:59:19.886Z,14.35
2022-10-22T19:01:47.982Z,9.23
2022-10-22T19:04:15.518Z,11.45
2022-10-22T19:06:45.567Z,10.63
2022-10-22T19:09:15.329Z,9.50
2022-10-22T19:11:44.930Z,11.05
2022-10-22T19:14:14.010Z,9.40
2022-10-22T19:16:41.585Z,11.63
2022-10-22T19:19:08.942Z,11.10
2022-10-22T19:21:37.979Z,12.30
2022-10-22T19:24:05.776Z,13.80
2022-10-22T19:26:33.787Z,16.80
2022-10-22T19:29:03.012Z,16.20
2022-10-22T19:31:31.280Z,10.85
2022-10-22T19:34:02.637Z,13.00
2022-10-22T19:36:32.533Z,13.77
2022-10-22T19:39:00.397Z,13.50
2022-10-22T19:41:29.474Z,14.43
2022-10-22T19:43:57.885Z,13.80
2022-10-22T19:46:26.924Z,22.17
2022-10-22T19:48:56.979Z,25.88
2022-10-22T19:51:29.924Z,29.08
2022-10-22T19:53:59.539Z,30.75
2022-10-22T19:56:27.703Z,20.60
2022-10-22T19:58:55.508Z,21.70
2022-10-22T20:01:23.757Z,23.42
2022-10-22T20:03:51.173Z,15.93
2022-10-22T20:06:19.054Z,14.73
2022-10-22T20:08:46.822Z,17.75
2022-10-22T20:11:20.302Z,13.30
2022-10-22T20:13:51.419Z,10.77
2022-10-22T20:16:24.276Z,13.60
2022-10-22T20:18:52.414Z,18.20
2022-10-22T20:21:20.759Z,13.27
2022-10-22T20:23:52.475Z,18.55
2022-10-22T20:26:21.122Z,16.30
2022-10-22T20:28:48.732Z,11.93
2022-10-22T20:31:19.859Z,15.13
2022-10-22T20:33:48.561Z,12.40
2022-10-22T20:36:21.617Z,13.25
2022-10-22T20:38:49.428Z,13.18
2022-10-22T20:41:23.469Z,17.23
2022-10-22T20:43:52.119Z,14.60
2022-10-22T20:46:23.066Z,17.13
2022-10-22T20:48:53.462Z,14.93
2022-10-22T20:51:21.045Z,14.38
2022-10-22T20:53:48.462Z,12.77
2022-10-22T20:56:17.779Z,19.48
2022-10-22T20:58:48.946Z,15.88
2022-10-22T21:01:24.189Z,14.65
2022-10-22T21:03:52.515Z,16.15
2022-10-22T21:06:22.974Z,14.98
2022-10-22T21:08:51.323Z,16.13
2022-10-22T21:11:19.510Z,12.65
2022-10-22T21:13:47.191Z,14.07
2022-10-22T21:16:16.958Z,13.68
2022-10-22T21:18:45.904Z,18.08
2022-10-22T21:21:13.424Z,15.82
2022-10-22T21:23:40.823Z,17.48
2022-10-22T21:26:08.751Z,20.30
2022-10-22T21:28:37.377Z,17.98
2022-10-22T21:31:06.862Z,16.90
2022-10-22T21:33:39.067Z,16.23
2022-10-22T21:36:08.980Z,18.27
2022-10-22T21:38:37.318Z,16.15
2022-10-22T21:41:10.237Z,16.45
2022-10-22T21:43:38.913Z,13.23
2022-10-22T21:46:13.070Z,15.25
2022-10-22T21:48:40.700Z,15.60
2022-10-22T21:51:12.961Z,16.80
2022-10-22T21:53:40.990Z,14.75
2022-10-22T21:56:17.934Z,16.52
2022-10-22T21:58:45.413Z,15.52
2022-10-22T22:01:14.403Z,15.27
2022-10-22T22:03:47.836Z,12.65
2022-10-22T22:06:20.525Z,17.80
2022-10-22T22:08:50.020Z,17.85
2022-10-22T22:11:21.887Z,16.67
2022-10-22T22:13:49.595Z,15.00
2022-10-22T22:16:22.435Z,16.00
2022-10-22T22:18:52.921Z,16.67
2022-10-22T22:21:21.882Z,15.00
2022-10-22T22:23:50.663Z,11.75
2022-10-22T22:26:25.297Z,15.85
2022-10-22T22:28:56.512Z,14.50
2022-10-22T22:31:30.150Z,21.73
2022-10-22T22:34:07.073Z,17.67
2022-10-22T22:36:36.663Z,14.25
2022-10-22T22:39:06.271Z,15.07
2022-10-22T22:41:33.861Z,15.18
2022-10-22T22:44:01.555Z,19.10
2022-10-22T22:46:29.015Z,17.90
2022-10-22T22:48:56.394Z,19.95
2022-10-22T22:51:24.231Z,19.77
2022-10-22T22:53:51.952Z,15.57
2022-10-22T22:56:20.754Z,17.15
2022-10-22T22:58:49.007Z,15.35
2022-10-22T23:01:22.330Z,27.48
2022-10-22T23:03:54.846Z,19.20
2022-10-22T23:06:23.342Z,20.05
2022-10-22T23:08:52.220Z,14.68
2022-10-22T23:11:20.513Z,18.77
2022-10-22T23:13:51.416Z,16.15
2022-10-22T23:16:21.488Z,14.80
2022-10-22T23:18:49.777Z,19.65
2022-10-22T23:21:19.622Z,17.33
2022-10-22T23:23:49.672Z,16.85
2022-10-22T23:26:20.098Z,18.38
2022-10-22T23:28:47.661Z,16.90
2022-10-22T23:31:17.068Z,16.92
2022-10-22T23:33:45.407Z,15.75
2022-10-22T23:36:13.443Z,15.10
2022-10-22T23:38:41.581Z,16.15
2022-10-22T23:41:09.771Z,17.25
2022-10-22T23:43:37.961Z,17.15
2022-10-22T23:46:07.051Z,21.42
2022-10-22T23:48:35.075Z,13.55
2022-10-22T23:51:14.267Z,16.63
2022-10-22T23:53:43.092Z,16.85
2022-10-22T23:56:16.314Z,14.05
2022-10-22T23:58:44.359Z,17.58
